Fort Spring, West Virginia
Current Conditions -  °F | °C
As of 5:15 AM on Tuesday 21 Oct 2014 (Local Time) from KLWB Reporting Station
Light Rain Light Rain  
Wind Chill: 50°   Ceiling: 3600
Heat Index: 50°   Visibility: 10mi
Dew Point: 47°   Wind: 0mph
Humidity: 87%   Direction: NA
Pressure: 29.92"   Gusts: NA
Location:  37.74°N, 80.54°W
Report Text: KLWB 210915Z AUTO 00000KT 10SM -RA SCT022 BKN036 OVC060 10/08 A2992 RMK AO2 P0001 T01020082
Loading
Personal Weather Stations






























Interactive Weather Map New forecast layout! Learn more

10-Day Weather Forecast

Advertisements
Track Severe Weather on mobile